sensor_id;sensor_type;location;lat;lon;timestamp;pressure;altitude;pressure_sealevel;temperature;humidity
16481;BME280;44634;54.110;12.138;2023-05-12T00:01:57;101856.09;;;18.17;100.00
16481;BME280;44634;54.110;12.138;2023-05-12T00:04:25;101845.78;;;17.70;100.00
16481;BME280;44634;54.110;12.138;2023-05-12T00:06:53;101840.38;;;17.88;100.00
16481;BME280;44634;54.110;12.138;2023-05-12T00:09:20;101847.91;;;17.67;100.00
16481;BME280;44634;54.110;12.138;2023-05-12T00:11:48;101848.00;;;17.57;100.00
16481;BME280;44634;54.110;12.138;2023-05-12T00:14:18;101847.66;;;18.04;100.00
16481;BME280;44634;54.110;12.138;2023-05-12T00:16:46;101852.88;;;17.62;100.00
16481;BME280;44634;54.110;12.138;2023-05-12T00:19:17;101849.47;;;17.95;100.00
16481;BME280;44634;54.110;12.138;2023-05-12T00:21:45;101857.34;;;17.17;100.00
16481;BME280;44634;54.110;12.138;2023-05-12T00:24:13;101847.19;;;17.65;100.00
16481;BME280;44634;54.110;12.138;2023-05-12T00:26:41;101849.81;;;17.74;100.00
16481;BME280;44634;54.110;12.138;2023-05-12T00:29:09;101856.84;;;17.58;100.00
16481;BME280;44634;54.110;12.138;2023-05-12T00:31:38;101860.38;;;17.58;100.00
16481;BME280;44634;54.110;12.138;2023-05-12T00:34:06;101858.44;;;17.86;100.00
16481;BME280;44634;54.110;12.138;2023-05-12T00:36:34;101860.25;;;17.86;100.00
16481;BME280;44634;54.110;12.138;2023-05-12T00:39:02;101862.94;;;17.24;100.00
16481;BME280;44634;54.110;12.138;2023-05-12T00:41:30;101855.34;;;17.73;100.00
16481;BME280;44634;54.110;12.138;2023-05-12T00:43:58;101864.44;;;17.44;100.00
16481;BME280;44634;54.110;12.138;2023-05-12T00:46:26;101855.41;;;17.45;100.00
16481;BME280;44634;54.110;12.138;2023-05-12T00:48:55;101855.38;;;17.37;100.00
16481;BME280;44634;54.110;12.138;2023-05-12T00:51:24;101853.13;;;17.68;100.00
16481;BME280;44634;54.110;12.138;2023-05-12T00:53:53;101850.50;;;17.59;100.00
16481;BME280;44634;54.110;12.138;2023-05-12T00:56:22;101854.88;;;17.60;100.00
16481;BME280;44634;54.110;12.138;2023-05-12T00:58:50;101858.16;;;17.71;100.00
16481;BME280;44634;54.110;12.138;2023-05-12T01:01:18;101863.03;;;17.58;100.00
16481;BME280;44634;54.110;12.138;2023-05-12T01:03:46;101865.88;;;17.57;100.00
16481;BME280;44634;54.110;12.138;2023-05-12T01:06:18;101862.47;;;17.90;100.00
16481;BME280;44634;54.110;12.138;2023-05-12T01:08:48;101869.22;;;17.76;100.00
16481;BME280;44634;54.110;12.138;2023-05-12T01:11:16;101871.22;;;17.74;100.00
16481;BME280;44634;54.110;12.138;2023-05-12T01:13:44;101870.63;;;17.45;100.00
16481;BME280;44634;54.110;12.138;2023-05-12T01:16:14;101873.66;;;17.50;100.00
16481;BME280;44634;54.110;12.138;2023-05-12T01:18:45;101871.78;;;17.42;100.00
16481;BME280;44634;54.110;12.138;2023-05-12T01:21:18;101868.09;;;17.43;100.00
16481;BME280;44634;54.110;12.138;2023-05-12T01:23:54;101871.75;;;17.78;100.00
16481;BME280;44634;54.110;12.138;2023-05-12T01:26:25;101875.97;;;17.45;100.00
16481;BME280;44634;54.110;12.138;2023-05-12T01:28:55;101869.63;;;17.81;100.00
16481;BME280;44634;54.110;12.138;2023-05-12T01:31:24;101866.19;;;17.71;100.00
16481;BME280;44634;54.110;12.138;2023-05-12T01:33:52;101874.38;;;17.52;100.00
16481;BME280;44634;54.110;12.138;2023-05-12T01:36:20;101879.56;;;17.53;100.00
16481;BME280;44634;54.110;12.138;2023-05-12T01:38:48;101874.91;;;17.55;100.00
16481;BME280;44634;54.110;12.138;2023-05-12T01:41:16;101881.72;;;17.32;100.00
16481;BME280;44634;54.110;12.138;2023-05-12T01:43:45;101874.94;;;17.38;100.00
16481;BME280;44634;54.110;12.138;2023-05-12T01:46:13;101876.59;;;17.21;100.00
16481;BME280;44634;54.110;12.138;2023-05-12T01:48:41;101874.78;;;17.39;100.00
16481;BME280;44634;54.110;12.138;2023-05-12T01:51:09;101883.09;;;17.36;100.00
16481;BME280;44634;54.110;12.138;2023-05-12T01:53:37;101890.09;;;17.55;100.00
16481;BME280;44634;54.110;12.138;2023-05-12T01:56:05;101892.72;;;16.93;100.00
16481;BME280;44634;54.110;12.138;2023-05-12T01:58:33;101891.19;;;17.27;100.00
16481;BME280;44634;54.110;12.138;2023-05-12T02:01:02;101893.88;;;17.09;100.00
16481;BME280;44634;54.110;12.138;2023-05-12T02:03:30;101895.81;;;17.07;100.00
16481;BME280;44634;54.110;12.138;2023-05-12T02:05:58;101898.31;;;16.63;100.00
16481;BME280;44634;54.110;12.138;2023-05-12T02:08:25;101903.41;;;16.93;100.00
16481;BME280;44634;54.110;12.138;2023-05-12T02:11:03;101896.69;;;16.15;100.00
16481;BME280;44634;54.110;12.138;2023-05-12T02:13:31;101902.13;;;16.70;100.00
16481;BME280;44634;54.110;12.138;2023-05-12T02:15:59;101896.94;;;16.59;100.00
16481;BME280;44634;54.110;12.138;2023-05-12T02:18:28;101898.53;;;16.52;100.00
16481;BME280;44634;54.110;12.138;2023-05-12T02:20:55;101908.91;;;16.18;100.00
16481;BME280;44634;54.110;12.138;2023-05-12T02:23:23;101898.22;;;16.18;100.00
16481;BME280;44634;54.110;12.138;2023-05-12T02:25:51;101894.34;;;16.49;100.00
16481;BME280;44634;54.110;12.138;2023-05-12T02:28:19;101907.16;;;16.36;100.00
16481;BME280;44634;54.110;12.138;2023-05-12T02:30:47;101903.38;;;16.29;100.00
16481;BME280;44634;54.110;12.138;2023-05-12T02:33:16;101907.66;;;16.22;100.00
16481;BME280;44634;54.110;12.138;2023-05-12T02:35:46;101911.78;;;16.34;100.00
16481;BME280;44634;54.110;12.138;2023-05-12T02:38:14;101914.00;;;16.01;100.00
16481;BME280;44634;54.110;12.138;2023-05-12T02:40:41;101918.25;;;16.41;100.00
16481;BME280;44634;54.110;12.138;2023-05-12T02:43:09;101913.69;;;16.14;100.00
16481;BME280;44634;54.110;12.138;2023-05-12T02:45:38;101917.75;;;16.18;100.00
16481;BME280;44634;54.110;12.138;2023-05-12T02:48:06;101917.94;;;16.44;100.00
16481;BME280;44634;54.110;12.138;2023-05-12T02:50:34;101913.38;;;16.27;100.00
16481;BME280;44634;54.110;12.138;2023-05-12T02:53:03;101909.94;;;16.07;100.00
16481;BME280;44634;54.110;12.138;2023-05-12T02:55:31;101913.81;;;16.22;100.00
16481;BME280;44634;54.110;12.138;2023-05-12T02:57:59;101912.47;;;15.99;100.00
16481;BME280;44634;54.110;12.138;2023-05-12T03:00:27;101910.72;;;16.17;100.00
16481;BME280;44634;54.110;12.138;2023-05-12T03:02:55;101910.19;;;16.14;100.00
16481;BME280;44634;54.110;12.138;2023-05-12T03:05:23;101919.56;;;16.18;100.00
16481;BME280;44634;54.110;12.138;2023-05-12T03:07:50;101920.09;;;16.31;100.00
16481;BME280;44634;54.110;12.138;2023-05-12T03:10:20;101915.88;;;16.28;100.00
16481;BME280;44634;54.110;12.138;2023-05-12T03:12:48;101918.09;;;16.43;100.00
16481;BME280;44634;54.110;12.138;2023-05-12T03:15:16;101914.97;;;16.47;100.00
16481;BME280;44634;54.110;12.138;2023-05-12T03:17:44;101909.63;;;16.47;100.00
16481;BME280;44634;54.110;12.138;2023-05-12T03:20:11;101917.78;;;16.46;100.00
16481;BME280;44634;54.110;12.138;2023-05-12T03:22:39;101914.13;;;16.10;100.00
16481;BME280;44634;54.110;12.138;2023-05-12T03:25:08;101913.16;;;16.11;100.00
16481;BME280;44634;54.110;12.138;2023-05-12T03:27:37;101917.34;;;16.13;100.00
16481;BME280;44634;54.110;12.138;2023-05-12T03:30:06;101916.63;;;16.21;100.00
16481;BME280;44634;54.110;12.138;2023-05-12T03:32:34;101923.59;;;16.31;100.00
16481;BME280;44634;54.110;12.138;2023-05-12T03:35:05;101919.63;;;16.45;100.00
16481;BME280;44634;54.110;12.138;2023-05-12T03:37:32;101923.75;;;16.30;100.00
16481;BME280;44634;54.110;12.138;2023-05-12T03:40:00;101920.78;;;16.33;100.00
16481;BME280;44634;54.110;12.138;2023-05-12T03:42:28;101926.13;;;16.33;100.00
16481;BME280;44634;54.110;12.138;2023-05-12T03:44:57;101925.91;;;16.54;100.00
16481;BME280;44634;54.110;12.138;2023-05-12T03:47:25;101926.41;;;16.40;100.00
16481;BME280;44634;54.110;12.138;2023-05-12T03:49:54;101926.41;;;16.30;100.00
16481;BME280;44634;54.110;12.138;2023-05-12T03:52:22;101928.47;;;16.46;100.00
16481;BME280;44634;54.110;12.138;2023-05-12T03:54:50;101932.50;;;16.13;100.00
16481;BME280;44634;54.110;12.138;2023-05-12T03:57:18;101927.22;;;15.93;100.00
16481;BME280;44634;54.110;12.138;2023-05-12T03:59:46;101926.25;;;16.41;100.00
16481;BME280;44634;54.110;12.138;2023-05-12T04:02:15;101924.03;;;16.36;100.00
16481;BME280;44634;54.110;12.138;2023-05-12T04:04:43;101928.69;;;16.25;100.00
16481;BME280;44634;54.110;12.138;2023-05-12T04:07:11;101930.59;;;16.42;100.00
16481;BME280;44634;54.110;12.138;2023-05-12T04:09:39;101934.28;;;16.31;100.00
16481;BME280;44634;54.110;12.138;2023-05-12T04:12:07;101940.91;;;16.18;100.00
16481;BME280;44634;54.110;12.138;2023-05-12T04:14:35;101934.56;;;16.28;100.00
16481;BME280;44634;54.110;12.138;2023-05-12T04:17:08;101941.44;;;16.31;100.00
16481;BME280;44634;54.110;12.138;2023-05-12T04:19:38;101943.16;;;16.59;100.00
16481;BME280;44634;54.110;12.138;2023-05-12T04:22:05;101949.03;;;16.73;100.00
16481;BME280;44634;54.110;12.138;2023-05-12T04:24:35;101948.41;;;16.51;100.00
16481;BME280;44634;54.110;12.138;2023-05-12T04:27:04;101949.69;;;16.84;100.00
16481;BME280;44634;54.110;12.138;2023-05-12T04:29:32;101961.03;;;16.69;100.00
16481;BME280;44634;54.110;12.138;2023-05-12T04:31:59;101962.34;;;17.10;100.00
16481;BME280;44634;54.110;12.138;2023-05-12T04:34:27;101962.94;;;16.76;100.00
16481;BME280;44634;54.110;12.138;2023-05-12T04:36:56;101967.69;;;16.82;100.00
16481;BME280;44634;54.110;12.138;2023-05-12T04:39:24;101967.47;;;17.21;100.00
16481;BME280;44634;54.110;12.138;2023-05-12T04:41:52;101968.69;;;17.09;100.00
16481;BME280;44634;54.110;12.138;2023-05-12T04:44:20;101966.38;;;16.96;100.00
16481;BME280;44634;54.110;12.138;2023-05-12T04:46:48;101969.28;;;16.75;100.00
16481;BME280;44634;54.110;12.138;2023-05-12T04:49:18;101972.94;;;16.74;100.00
16481;BME280;44634;54.110;12.138;2023-05-12T04:51:46;101976.28;;;16.29;100.00
16481;BME280;44634;54.110;12.138;2023-05-12T04:54:16;101978.56;;;16.24;100.00
16481;BME280;44634;54.110;12.138;2023-05-12T04:56:43;101976.88;;;16.60;100.00
16481;BME280;44634;54.110;12.138;2023-05-12T04:59:11;101980.94;;;16.27;100.00
16481;BME280;44634;54.110;12.138;2023-05-12T05:01:41;101977.25;;;16.85;100.00
16481;BME280;44634;54.110;12.138;2023-05-12T05:04:09;101981.75;;;17.12;100.00
16481;BME280;44634;54.110;12.138;2023-05-12T05:06:37;101988.47;;;16.88;100.00
16481;BME280;44634;54.110;12.138;2023-05-12T05:09:05;101988.66;;;17.50;100.00
16481;BME280;44634;54.110;12.138;2023-05-12T05:11:34;101987.78;;;17.14;100.00
16481;BME280;44634;54.110;12.138;2023-05-12T05:14:02;101997.84;;;16.55;100.00
16481;BME280;44634;54.110;12.138;2023-05-12T05:16:30;101988.22;;;17.37;100.00
16481;BME280;44634;54.110;12.138;2023-05-12T05:18:58;101984.97;;;17.15;98.85
16481;BME280;44634;54.110;12.138;2023-05-12T05:21:31;101991.31;;;17.50;96.74
16481;BME280;44634;54.110;12.138;2023-05-12T05:24:00;101996.78;;;17.13;99.00
16481;BME280;44634;54.110;12.138;2023-05-12T05:26:27;101998.59;;;17.40;99.07
16481;BME280;44634;54.110;12.138;2023-05-12T05:28:56;101995.34;;;17.81;95.59
16481;BME280;44634;54.110;12.138;2023-05-12T05:31:24;101995.13;;;17.75;94.88
16481;BME280;44634;54.110;12.138;2023-05-12T05:33:54;102000.63;;;17.73;94.74
16481;BME280;44634;54.110;12.138;2023-05-12T05:36:22;102001.75;;;17.89;94.67
16481;BME280;44634;54.110;12.138;2023-05-12T05:38:51;102005.06;;;17.82;93.95
16481;BME280;44634;54.110;12.138;2023-05-12T05:41:19;102015.84;;;17.00;97.62
16481;BME280;44634;54.110;12.138;2023-05-12T05:43:47;102006.63;;;18.11;93.68
16481;BME280;44634;54.110;12.138;2023-05-12T05:46:17;102015.25;;;18.23;91.61
16481;BME280;44634;54.110;12.138;2023-05-12T05:48:44;102026.72;;;17.62;95.20
16481;BME280;44634;54.110;12.138;2023-05-12T05:51:12;102024.41;;;17.94;89.74
16481;BME280;44634;54.110;12.138;2023-05-12T05:53:40;102026.38;;;17.74;95.84
16481;BME280;44634;54.110;12.138;2023-05-12T05:56:08;102029.88;;;18.36;87.72
16481;BME280;44634;54.110;12.138;2023-05-12T05:58:35;102020.97;;;18.80;86.65
16481;BME280;44634;54.110;12.138;2023-05-12T06:01:03;102024.16;;;17.88;91.44
16481;BME280;44634;54.110;12.138;2023-05-12T06:03:33;102024.03;;;18.59;87.35
16481;BME280;44634;54.110;12.138;2023-05-12T06:06:01;102027.59;;;17.98;95.19
16481;BME280;44634;54.110;12.138;2023-05-12T06:08:28;102023.28;;;18.66;88.35
16481;BME280;44634;54.110;12.138;2023-05-12T06:10:56;102035.25;;;18.10;88.89
16481;BME280;44634;54.110;12.138;2023-05-12T06:13:24;102032.75;;;18.61;90.73
16481;BME280;44634;54.110;12.138;2023-05-12T06:15:52;102031.72;;;18.36;89.29
16481;BME280;44634;54.110;12.138;2023-05-12T06:18:21;102039.06;;;18.52;87.23
16481;BME280;44634;54.110;12.138;2023-05-12T06:20:50;102033.63;;;18.43;92.95
16481;BME280;44634;54.110;12.138;2023-05-12T06:23:18;102027.34;;;18.79;88.49
16481;BME280;44634;54.110;12.138;2023-05-12T06:25:47;102030.69;;;19.15;86.18
16481;BME280;44634;54.110;12.138;2023-05-12T06:28:15;102029.81;;;19.06;85.46
16481;BME280;44634;54.110;12.138;2023-05-12T06:30:43;102028.25;;;19.38;81.83
16481;BME280;44634;54.110;12.138;2023-05-12T06:33:11;102029.00;;;19.56;81.37
16481;BME280;44634;54.110;12.138;2023-05-12T06:35:39;102029.88;;;20.05;80.60
16481;BME280;44634;54.110;12.138;2023-05-12T06:38:08;102031.72;;;19.72;86.92
16481;BME280;44634;54.110;12.138;2023-05-12T06:40:36;102035.38;;;19.55;82.87
16481;BME280;44634;54.110;12.138;2023-05-12T06:43:03;102033.41;;;19.89;80.61
16481;BME280;44634;54.110;12.138;2023-05-12T06:45:31;102034.91;;;20.16;77.51
16481;BME280;44634;54.110;12.138;2023-05-12T06:47:59;102031.56;;;20.55;78.48
16481;BME280;44634;54.110;12.138;2023-05-12T06:50:28;102033.75;;;20.43;78.12
16481;BME280;44634;54.110;12.138;2023-05-12T06:52:56;102035.88;;;20.72;73.21
16481;BME280;44634;54.110;12.138;2023-05-12T06:55:26;102033.88;;;20.34;77.18
16481;BME280;44634;54.110;12.138;2023-05-12T06:57:53;102040.78;;;20.20;76.27
16481;BME280;44634;54.110;12.138;2023-05-12T07:00:22;102028.31;;;20.68;76.17
16481;BME280;44634;54.110;12.138;2023-05-12T07:02:50;102037.59;;;20.33;75.01
16481;BME280;44634;54.110;12.138;2023-05-12T07:05:19;102038.84;;;20.86;71.00
16481;BME280;44634;54.110;12.138;2023-05-12T07:07:47;102032.50;;;21.18;72.88
16481;BME280;44634;54.110;12.138;2023-05-12T07:10:15;102036.28;;;21.00;70.59
16481;BME280;44634;54.110;12.138;2023-05-12T07:12:44;102033.78;;;20.91;75.15
16481;BME280;44634;54.110;12.138;2023-05-12T07:15:12;102033.47;;;20.86;74.97
16481;BME280;44634;54.110;12.138;2023-05-12T07:17:40;102034.81;;;20.82;74.81
16481;BME280;44634;54.110;12.138;2023-05-12T07:20:08;102020.72;;;21.58;68.88
16481;BME280;44634;54.110;12.138;2023-05-12T07:22:36;102026.94;;;21.58;70.62
16481;BME280;44634;54.110;12.138;2023-05-12T07:25:05;102031.97;;;21.22;68.00
16481;BME280;44634;54.110;12.138;2023-05-12T07:27:33;102028.13;;;21.25;64.22
16481;BME280;44634;54.110;12.138;2023-05-12T07:30:03;102028.28;;;21.54;61.78
16481;BME280;44634;54.110;12.138;2023-05-12T07:32:31;102028.34;;;21.92;60.42
16481;BME280;44634;54.110;12.138;2023-05-12T07:34:59;102031.09;;;21.84;61.25
16481;BME280;44634;54.110;12.138;2023-05-12T07:37:29;102028.25;;;21.62;65.95
16481;BME280;44634;54.110;12.138;2023-05-12T07:39:57;102027.94;;;22.03;63.73
16481;BME280;44634;54.110;12.138;2023-05-12T07:42:25;102027.09;;;21.80;68.72
16481;BME280;44634;54.110;12.138;2023-05-12T07:44:53;102027.66;;;22.36;68.69
16481;BME280;44634;54.110;12.138;2023-05-12T07:47:22;102025.44;;;22.02;69.45
16481;BME280;44634;54.110;12.138;2023-05-12T07:49:50;102030.03;;;21.93;64.19
16481;BME280;44634;54.110;12.138;2023-05-12T07:52:18;102032.03;;;22.37;62.61
16481;BME280;44634;54.110;12.138;2023-05-12T07:54:46;102025.41;;;22.24;59.87
16481;BME280;44634;54.110;12.138;2023-05-12T07:57:14;102029.13;;;22.23;57.37
16481;BME280;44634;54.110;12.138;2023-05-12T07:59:42;102026.75;;;22.29;55.09
16481;BME280;44634;54.110;12.138;2023-05-12T08:02:09;102028.41;;;22.30;53.94
16481;BME280;44634;54.110;12.138;2023-05-12T08:04:39;102030.47;;;22.42;54.98
16481;BME280;44634;54.110;12.138;2023-05-12T08:07:09;102028.69;;;22.35;55.58
16481;BME280;44634;54.110;12.138;2023-05-12T08:09:37;102028.25;;;22.61;54.08
16481;BME280;44634;54.110;12.138;2023-05-12T08:12:05;102017.94;;;22.94;54.45
16481;BME280;44634;54.110;12.138;2023-05-12T08:14:33;102031.47;;;22.56;56.72
16481;BME280;44634;54.110;12.138;2023-05-12T08:17:01;102022.22;;;23.03;53.61
16481;BME280;44634;54.110;12.138;2023-05-12T08:19:30;102025.75;;;22.44;55.49
16481;BME280;44634;54.110;12.138;2023-05-12T08:21:59;102030.94;;;23.20;51.83
16481;BME280;44634;54.110;12.138;2023-05-12T08:24:28;102024.28;;;23.37;51.12
16481;BME280;44634;54.110;12.138;2023-05-12T08:26:56;102039.78;;;22.69;54.42
16481;BME280;44634;54.110;12.138;2023-05-12T08:29:23;102025.84;;;22.95;53.17
16481;BME280;44634;54.110;12.138;2023-05-12T08:31:51;102029.16;;;23.12;50.23
16481;BME280;44634;54.110;12.138;2023-05-12T08:34:19;102023.84;;;23.33;49.10
16481;BME280;44634;54.110;12.138;2023-05-12T08:36:47;102025.28;;;22.85;49.86
16481;BME280;44634;54.110;12.138;2023-05-12T08:39:16;102029.88;;;23.35;48.45
16481;BME280;44634;54.110;12.138;2023-05-12T08:41:49;102022.44;;;23.73;47.78
16481;BME280;44634;54.110;12.138;2023-05-12T08:44:18;102032.84;;;23.40;47.91
16481;BME280;44634;54.110;12.138;2023-05-12T08:46:47;102019.34;;;23.77;47.64
16481;BME280;44634;54.110;12.138;2023-05-12T08:49:16;102017.25;;;24.00;45.56
16481;BME280;44634;54.110;12.138;2023-05-12T08:51:47;102020.50;;;23.53;48.33
16481;BME280;44634;54.110;12.138;2023-05-12T08:54:26;102027.44;;;23.77;47.57
16481;BME280;44634;54.110;12.138;2023-05-12T08:56:55;102018.50;;;24.47;48.01
16481;BME280;44634;54.110;12.138;2023-05-12T08:59:26;102008.94;;;24.23;46.07
16481;BME280;44634;54.110;12.138;2023-05-12T09:01:54;102013.09;;;24.25;44.07
16481;BME280;44634;54.110;12.138;2023-05-12T09:04:21;102018.13;;;24.56;44.97
16481;BME280;44634;54.110;12.138;2023-05-12T09:06:49;102013.22;;;24.73;44.62
16481;BME280;44634;54.110;12.138;2023-05-12T09:09:22;102018.28;;;24.48;44.59
16481;BME280;44634;54.110;12.138;2023-05-12T09:11:55;102014.75;;;23.98;43.97
16481;BME280;44634;54.110;12.138;2023-05-12T09:14:24;102011.38;;;24.39;42.85
16481;BME280;44634;54.110;12.138;2023-05-12T09:16:55;102022.50;;;24.29;40.69
16481;BME280;44634;54.110;12.138;2023-05-12T09:19:25;102009.91;;;24.15;40.53
16481;BME280;44634;54.110;12.138;2023-05-12T09:21:53;102021.59;;;24.78;39.03
16481;BME280;44634;54.110;12.138;2023-05-12T09:24:32;102021.19;;;25.29;38.50
16481;BME280;44634;54.110;12.138;2023-05-12T09:27:03;102009.75;;;24.79;38.21
16481;BME280;44634;54.110;12.138;2023-05-12T09:29:31;102019.28;;;24.75;40.87
16481;BME280;44634;54.110;12.138;2023-05-12T09:32:07;102017.09;;;24.99;40.36
16481;BME280;44634;54.110;12.138;2023-05-12T09:34:36;102019.13;;;25.25;39.67
16481;BME280;44634;54.110;12.138;2023-05-12T09:37:06;102008.06;;;25.19;39.27
16481;BME280;44634;54.110;12.138;2023-05-12T09:39:35;102015.38;;;24.84;38.00
16481;BME280;44634;54.110;12.138;2023-05-12T09:42:09;102011.69;;;24.92;38.55
16481;BME280;44634;54.110;12.138;2023-05-12T09:44:38;102009.06;;;25.12;38.47
16481;BME280;44634;54.110;12.138;2023-05-12T09:47:06;102012.88;;;25.24;38.32
16481;BME280;44634;54.110;12.138;2023-05-12T09:49:35;102007.91;;;25.34;37.80
16481;BME280;44634;54.110;12.138;2023-05-12T09:52:04;102008.19;;;25.72;37.07
16481;BME280;44634;54.110;12.138;2023-05-12T09:54:32;102006.00;;;24.87;37.79
16481;BME280;44634;54.110;12.138;2023-05-12T09:57:01;102002.94;;;25.51;36.92
16481;BME280;44634;54.110;12.138;2023-05-12T09:59:33;102007.25;;;25.19;37.67
16481;BME280;44634;54.110;12.138;2023-05-12T10:02:04;102001.56;;;25.82;36.78
16481;BME280;44634;54.110;12.138;2023-05-12T10:04:36;101994.47;;;26.33;36.51
16481;BME280;44634;54.110;12.138;2023-05-12T10:07:11;101998.00;;;26.14;36.54
16481;BME280;44634;54.110;12.138;2023-05-12T10:09:41;101987.22;;;26.92;34.98
16481;BME280;44634;54.110;12.138;2023-05-12T10:12:09;102002.31;;;26.68;34.45
16481;BME280;44634;54.110;12.138;2023-05-12T10:14:39;101994.09;;;26.94;34.03
16481;BME280;44634;54.110;12.138;2023-05-12T10:17:08;101993.13;;;27.58;34.13
16481;BME280;44634;54.110;12.138;2023-05-12T10:19:36;101995.47;;;27.86;32.97
16481;BME280;44634;54.110;12.138;2023-05-12T10:22:09;101998.41;;;28.10;32.48
16481;BME280;44634;54.110;12.138;2023-05-12T10:24:38;101991.63;;;27.69;33.43
16481;BME280;44634;54.110;12.138;2023-05-12T10:27:07;101982.38;;;28.20;32.29
16481;BME280;44634;54.110;12.138;2023-05-12T10:29:35;101986.13;;;27.44;34.62
16481;BME280;44634;54.110;12.138;2023-05-12T10:32:06;101979.59;;;28.70;32.46
16481;BME280;44634;54.110;12.138;2023-05-12T10:34:35;101972.56;;;29.29;30.41
16481;BME280;44634;54.110;12.138;2023-05-12T10:37:04;101981.34;;;28.83;31.14
16481;BME280;44634;54.110;12.138;2023-05-12T10:39:33;101974.78;;;29.50;30.78
16481;BME280;44634;54.110;12.138;2023-05-12T10:42:05;101973.97;;;29.61;30.78
16481;BME280;44634;54.110;12.138;2023-05-12T10:44:34;101973.06;;;30.03;30.20
16481;BME280;44634;54.110;12.138;2023-05-12T10:47:12;101976.97;;;29.42;30.45
16481;BME280;44634;54.110;12.138;2023-05-12T10:49:40;101979.25;;;28.23;31.01
16481;BME280;44634;54.110;12.138;2023-05-12T10:52:10;101981.75;;;29.16;30.28
16481;BME280;44634;54.110;12.138;2023-05-12T10:54:40;101985.34;;;28.62;30.32
16481;BME280;44634;54.110;12.138;2023-05-12T10:57:14;101981.47;;;29.06;31.18
16481;BME280;44634;54.110;12.138;2023-05-12T10:59:48;101971.69;;;30.12;28.05
16481;BME280;44634;54.110;12.138;2023-05-12T11:02:22;101973.28;;;29.66;29.13
16481;BME280;44634;54.110;12.138;2023-05-12T11:04:55;101971.31;;;29.13;28.11
16481;BME280;44634;54.110;12.138;2023-05-12T11:07:25;101973.63;;;29.58;28.57
16481;BME280;44634;54.110;12.138;2023-05-12T11:09:54;101975.94;;;29.96;28.45
16481;BME280;44634;54.110;12.138;2023-05-12T11:12:29;101967.75;;;29.43;29.29
16481;BME280;44634;54.110;12.138;2023-05-12T11:14:59;101962.53;;;29.95;28.69
16481;BME280;44634;54.110;12.138;2023-05-12T11:17:28;101970.31;;;29.68;27.93
16481;BME280;44634;54.110;12.138;2023-05-12T11:19:56;101979.34;;;29.38;27.03
16481;BME280;44634;54.110;12.138;2023-05-12T11:22:26;101973.47;;;28.93;28.32
16481;BME280;44634;54.110;12.138;2023-05-12T11:24:54;101970.78;;;29.76;28.48
16481;BME280;44634;54.110;12.138;2023-05-12T11:27:22;101967.28;;;29.99;28.27
16481;BME280;44634;54.110;12.138;2023-05-12T11:29:57;101989.03;;;27.49;30.58
16481;BME280;44634;54.110;12.138;2023-05-12T11:32:26;101961.81;;;29.87;28.82
16481;BME280;44634;54.110;12.138;2023-05-12T11:35:06;101971.75;;;29.70;28.86
16481;BME280;44634;54.110;12.138;2023-05-12T11:37:36;101970.13;;;29.81;27.89
16481;BME280;44634;54.110;12.138;2023-05-12T11:40:12;101958.50;;;30.44;27.82
16481;BME280;44634;54.110;12.138;2023-05-12T11:42:40;101964.47;;;31.21;26.97
16481;BME280;44634;54.110;12.138;2023-05-12T11:45:18;101972.66;;;30.81;25.47
16481;BME280;44634;54.110;12.138;2023-05-12T11:47:47;101987.78;;;29.18;26.34
16481;BME280;44634;54.110;12.138;2023-05-12T11:50:21;101973.69;;;29.10;25.94
16481;BME280;44634;54.110;12.138;2023-05-12T11:52:50;101986.41;;;29.27;26.48
16481;BME280;44634;54.110;12.138;2023-05-12T11:55:19;101978.31;;;29.51;26.84
16481;BME280;44634;54.110;12.138;2023-05-12T11:58:00;101979.81;;;29.05;27.12
16481;BME280;44634;54.110;12.138;2023-05-12T12:00:30;101986.38;;;29.99;27.27
16481;BME280;44634;54.110;12.138;2023-05-12T12:03:09;101979.78;;;29.53;27.81
16481;BME280;44634;54.110;12.138;2023-05-12T12:05:41;101980.97;;;29.27;28.94
16481;BME280;44634;54.110;12.138;2023-05-12T12:08:11;101975.56;;;30.04;28.07
16481;BME280;44634;54.110;12.138;2023-05-12T12:10:42;101972.50;;;30.36;26.86
16481;BME280;44634;54.110;12.138;2023-05-12T12:13:10;101962.34;;;30.83;26.70
16481;BME280;44634;54.110;12.138;2023-05-12T12:15:38;101969.28;;;31.02;26.92
16481;BME280;44634;54.110;12.138;2023-05-12T12:18:06;101989.19;;;28.54;28.70
16481;BME280;44634;54.110;12.138;2023-05-12T12:20:34;101979.56;;;29.78;27.74
16481;BME280;44634;54.110;12.138;2023-05-12T12:23:03;101982.50;;;29.65;27.43
16481;BME280;44634;54.110;12.138;2023-05-12T12:25:31;101966.16;;;31.11;27.09
16481;BME280;44634;54.110;12.138;2023-05-12T12:27:59;101978.13;;;29.64;27.31
16481;BME280;44634;54.110;12.138;2023-05-12T12:30:26;101991.34;;;30.02;27.33
16481;BME280;44634;54.110;12.138;2023-05-12T12:32:54;101983.97;;;29.91;27.97
16481;BME280;44634;54.110;12.138;2023-05-12T12:35:22;101974.88;;;31.24;26.67
16481;BME280;44634;54.110;12.138;2023-05-12T12:37:50;101987.44;;;30.68;26.60
16481;BME280;44634;54.110;12.138;2023-05-12T12:40:20;101979.28;;;30.97;25.79
16481;BME280;44634;54.110;12.138;2023-05-12T12:42:47;101990.09;;;29.63;26.38
16481;BME280;44634;54.110;12.138;2023-05-12T12:45:15;101979.88;;;30.12;27.85